sensor_id;sensor_type;location;lat;lon;timestamp;P1;durP1;ratioP1;P2;durP2;ratioP2
57327;SDS011;43162;51.040;18.244;2022-07-04T00:02:12;6.90;;;3.00;;
57327;SDS011;43162;51.040;18.244;2022-07-04T00:04:56;6.90;;;3.10;;
57327;SDS011;43162;51.040;18.244;2022-07-04T00:07:41;5.00;;;2.90;;
57327;SDS011;43162;51.040;18.244;2022-07-04T00:10:25;7.40;;;3.10;;
57327;SDS011;43162;51.040;18.244;2022-07-04T00:13:09;5.90;;;3.40;;
57327;SDS011;43162;51.040;18.244;2022-07-04T00:15:54;7.20;;;3.10;;
57327;SDS011;43162;51.040;18.244;2022-07-04T00:18:39;4.50;;;3.20;;
57327;SDS011;43162;51.040;18.244;2022-07-04T00:21:23;6.40;;;3.20;;
57327;SDS011;43162;51.040;18.244;2022-07-04T00:24:07;4.60;;;3.10;;
57327;SDS011;43162;51.040;18.244;2022-07-04T00:26:52;6.80;;;3.30;;
57327;SDS011;43162;51.040;18.244;2022-07-04T00:29:36;6.60;;;3.10;;
57327;SDS011;43162;51.040;18.244;2022-07-04T00:32:20;8.00;;;3.30;;
57327;SDS011;43162;51.040;18.244;2022-07-04T00:35:04;6.20;;;3.50;;
57327;SDS011;43162;51.040;18.244;2022-07-04T00:37:48;7.00;;;3.10;;
57327;SDS011;43162;51.040;18.244;2022-07-04T00:40:32;6.30;;;3.70;;
57327;SDS011;43162;51.040;18.244;2022-07-04T00:43:20;7.70;;;3.80;;
57327;SDS011;43162;51.040;18.244;2022-07-04T00:46:05;8.30;;;3.80;;
57327;SDS011;43162;51.040;18.244;2022-07-04T00:48:49;5.70;;;3.70;;
57327;SDS011;43162;51.040;18.244;2022-07-04T00:51:33;6.20;;;3.80;;
57327;SDS011;43162;51.040;18.244;2022-07-04T00:54:17;6.50;;;3.60;;
57327;SDS011;43162;51.040;18.244;2022-07-04T00:57:02;7.90;;;3.70;;
57327;SDS011;43162;51.040;18.244;2022-07-04T00:59:46;7.10;;;3.80;;
57327;SDS011;43162;51.040;18.244;2022-07-04T01:02:30;9.60;;;4.00;;
57327;SDS011;43162;51.040;18.244;2022-07-04T01:05:14;7.60;;;4.00;;
57327;SDS011;43162;51.040;18.244;2022-07-04T01:07:58;6.40;;;3.80;;
57327;SDS011;43162;51.040;18.244;2022-07-04T01:10:43;8.20;;;4.20;;
57327;SDS011;43162;51.040;18.244;2022-07-04T01:13:27;7.50;;;4.30;;
57327;SDS011;43162;51.040;18.244;2022-07-04T01:16:12;6.80;;;4.30;;
57327;SDS011;43162;51.040;18.244;2022-07-04T01:18:56;8.40;;;4.50;;
57327;SDS011;43162;51.040;18.244;2022-07-04T01:21:40;10.80;;;4.40;;
57327;SDS011;43162;51.040;18.244;2022-07-04T01:24:24;6.50;;;4.30;;
57327;SDS011;43162;51.040;18.244;2022-07-04T01:27:08;8.60;;;4.50;;
57327;SDS011;43162;51.040;18.244;2022-07-04T01:29:52;8.70;;;4.50;;
57327;SDS011;43162;51.040;18.244;2022-07-04T01:32:36;10.60;;;4.50;;
57327;SDS011;43162;51.040;18.244;2022-07-04T01:35:21;9.70;;;4.50;;
57327;SDS011;43162;51.040;18.244;2022-07-04T01:38:05;7.80;;;4.60;;
57327;SDS011;43162;51.040;18.244;2022-07-04T01:40:49;11.00;;;4.60;;
57327;SDS011;43162;51.040;18.244;2022-07-04T01:43:33;9.60;;;5.10;;
57327;SDS011;43162;51.040;18.244;2022-07-04T01:46:19;8.90;;;4.80;;
57327;SDS011;43162;51.040;18.244;2022-07-04T01:49:03;8.10;;;4.90;;
57327;SDS011;43162;51.040;18.244;2022-07-04T01:51:48;9.40;;;4.90;;
57327;SDS011;43162;51.040;18.244;2022-07-04T01:54:32;8.50;;;4.80;;
57327;SDS011;43162;51.040;18.244;2022-07-04T01:57:16;9.70;;;5.10;;
57327;SDS011;43162;51.040;18.244;2022-07-04T02:00:00;9.60;;;5.20;;
57327;SDS011;43162;51.040;18.244;2022-07-04T02:03:04;9.50;;;5.30;;
57327;SDS011;43162;51.040;18.244;2022-07-04T02:05:48;11.30;;;5.20;;
57327;SDS011;43162;51.040;18.244;2022-07-04T02:08:32;9.30;;;5.50;;
57327;SDS011;43162;51.040;18.244;2022-07-04T02:11:35;10.90;;;5.20;;
57327;SDS011;43162;51.040;18.244;2022-07-04T02:14:38;10.30;;;5.30;;
57327;SDS011;43162;51.040;18.244;2022-07-04T02:17:24;12.20;;;5.60;;
57327;SDS011;43162;51.040;18.244;2022-07-04T02:20:09;9.20;;;5.30;;
57327;SDS011;43162;51.040;18.244;2022-07-04T02:22:53;10.50;;;5.70;;
57327;SDS011;43162;51.040;18.244;2022-07-04T02:25:37;12.70;;;5.90;;
57327;SDS011;43162;51.040;18.244;2022-07-04T02:28:21;9.20;;;5.80;;
57327;SDS011;43162;51.040;18.244;2022-07-04T02:31:06;10.50;;;6.20;;
57327;SDS011;43162;51.040;18.244;2022-07-04T02:33:49;10.70;;;5.70;;
57327;SDS011;43162;51.040;18.244;2022-07-04T02:36:34;12.50;;;5.80;;
57327;SDS011;43162;51.040;18.244;2022-07-04T02:39:18;10.10;;;5.60;;
57327;SDS011;43162;51.040;18.244;2022-07-04T02:42:02;10.80;;;5.70;;
57327;SDS011;43162;51.040;18.244;2022-07-04T02:44:46;11.50;;;5.70;;
57327;SDS011;43162;51.040;18.244;2022-07-04T02:47:31;12.20;;;5.80;;
57327;SDS011;43162;51.040;18.244;2022-07-04T02:50:15;12.20;;;5.90;;
57327;SDS011;43162;51.040;18.244;2022-07-04T02:52:59;9.70;;;5.40;;
57327;SDS011;43162;51.040;18.244;2022-07-04T02:55:44;12.20;;;6.00;;
57327;SDS011;43162;51.040;18.244;2022-07-04T02:58:28;9.80;;;5.70;;
57327;SDS011;43162;51.040;18.244;2022-07-04T03:01:12;11.90;;;6.50;;
57327;SDS011;43162;51.040;18.244;2022-07-04T03:03:56;10.90;;;6.20;;
57327;SDS011;43162;51.040;18.244;2022-07-04T03:06:40;10.20;;;6.10;;
57327;SDS011;43162;51.040;18.244;2022-07-04T03:09:26;10.40;;;6.30;;
57327;SDS011;43162;51.040;18.244;2022-07-04T03:12:13;12.40;;;5.90;;
57327;SDS011;43162;51.040;18.244;2022-07-04T03:14:57;10.60;;;5.50;;
57327;SDS011;43162;51.040;18.244;2022-07-04T03:17:43;11.10;;;5.50;;
57327;SDS011;43162;51.040;18.244;2022-07-04T03:20:27;10.40;;;5.10;;
57327;SDS011;43162;51.040;18.244;2022-07-04T03:23:11;9.40;;;4.60;;
57327;SDS011;43162;51.040;18.244;2022-07-04T03:25:55;8.80;;;4.20;;
57327;SDS011;43162;51.040;18.244;2022-07-04T03:28:39;8.60;;;4.40;;
57327;SDS011;43162;51.040;18.244;2022-07-04T03:31:23;7.20;;;4.10;;
57327;SDS011;43162;51.040;18.244;2022-07-04T03:34:08;8.70;;;3.90;;
57327;SDS011;43162;51.040;18.244;2022-07-04T03:36:52;7.90;;;3.90;;
57327;SDS011;43162;51.040;18.244;2022-07-04T03:39:36;7.50;;;3.70;;
57327;SDS011;43162;51.040;18.244;2022-07-04T03:42:20;6.70;;;3.90;;
57327;SDS011;43162;51.040;18.244;2022-07-04T03:45:05;6.20;;;3.60;;
57327;SDS011;43162;51.040;18.244;2022-07-04T03:47:50;8.80;;;3.90;;
57327;SDS011;43162;51.040;18.244;2022-07-04T03:50:34;6.30;;;3.60;;
57327;SDS011;43162;51.040;18.244;2022-07-04T03:53:18;11.20;;;3.70;;
57327;SDS011;43162;51.040;18.244;2022-07-04T03:56:03;7.10;;;3.40;;
57327;SDS011;43162;51.040;18.244;2022-07-04T03:58:48;7.00;;;3.30;;
57327;SDS011;43162;51.040;18.244;2022-07-04T04:01:33;5.90;;;3.70;;
57327;SDS011;43162;51.040;18.244;2022-07-04T04:04:17;8.70;;;3.80;;
57327;SDS011;43162;51.040;18.244;2022-07-04T04:07:20;6.90;;;3.60;;
57327;SDS011;43162;51.040;18.244;2022-07-04T04:10:05;6.60;;;3.60;;
57327;SDS011;43162;51.040;18.244;2022-07-04T04:12:49;7.10;;;3.50;;
57327;SDS011;43162;51.040;18.244;2022-07-04T04:15:33;8.00;;;3.50;;
57327;SDS011;43162;51.040;18.244;2022-07-04T04:18:17;7.70;;;3.30;;
57327;SDS011;43162;51.040;18.244;2022-07-04T04:21:02;7.90;;;3.60;;
57327;SDS011;43162;51.040;18.244;2022-07-04T04:23:46;6.30;;;3.30;;
57327;SDS011;43162;51.040;18.244;2022-07-04T04:26:30;8.80;;;3.60;;
57327;SDS011;43162;51.040;18.244;2022-07-04T04:29:14;9.00;;;3.50;;
57327;SDS011;43162;51.040;18.244;2022-07-04T04:31:59;7.70;;;3.50;;
57327;SDS011;43162;51.040;18.244;2022-07-04T04:34:43;7.80;;;3.30;;
57327;SDS011;43162;51.040;18.244;2022-07-04T04:37:27;5.60;;;3.10;;
57327;SDS011;43162;51.040;18.244;2022-07-04T04:40:11;6.40;;;3.30;;
57327;SDS011;43162;51.040;18.244;2022-07-04T04:42:55;7.20;;;3.20;;
57327;SDS011;43162;51.040;18.244;2022-07-04T04:45:39;6.30;;;3.20;;
57327;SDS011;43162;51.040;18.244;2022-07-04T04:48:24;6.80;;;3.80;;
57327;SDS011;43162;51.040;18.244;2022-07-04T04:51:08;7.90;;;2.90;;
57327;SDS011;43162;51.040;18.244;2022-07-04T04:53:52;8.20;;;3.60;;
57327;SDS011;43162;51.040;18.244;2022-07-04T04:56:36;10.00;;;3.50;;
57327;SDS011;43162;51.040;18.244;2022-07-04T04:59:20;9.40;;;3.50;;
57327;SDS011;43162;51.040;18.244;2022-07-04T05:02:04;6.20;;;3.00;;
57327;SDS011;43162;51.040;18.244;2022-07-04T05:04:48;8.30;;;3.40;;
57327;SDS011;43162;51.040;18.244;2022-07-04T05:07:32;8.20;;;3.50;;
57327;SDS011;43162;51.040;18.244;2022-07-04T05:10:17;10.30;;;3.60;;
57327;SDS011;43162;51.040;18.244;2022-07-04T05:13:01;7.00;;;3.30;;
57327;SDS011;43162;51.040;18.244;2022-07-04T05:15:46;6.70;;;3.20;;
57327;SDS011;43162;51.040;18.244;2022-07-04T05:18:30;6.00;;;3.50;;
57327;SDS011;43162;51.040;18.244;2022-07-04T05:21:15;6.40;;;3.60;;
57327;SDS011;43162;51.040;18.244;2022-07-04T05:23:59;5.20;;;3.20;;
57327;SDS011;43162;51.040;18.244;2022-07-04T05:26:43;6.80;;;4.10;;
57327;SDS011;43162;51.040;18.244;2022-07-04T05:29:27;8.30;;;5.20;;
57327;SDS011;43162;51.040;18.244;2022-07-04T05:32:11;8.70;;;5.20;;
57327;SDS011;43162;51.040;18.244;2022-07-04T05:34:55;14.70;;;12.80;;
57327;SDS011;43162;51.040;18.244;2022-07-04T05:37:40;8.40;;;6.30;;
57327;SDS011;43162;51.040;18.244;2022-07-04T05:40:24;7.90;;;3.70;;
57327;SDS011;43162;51.040;18.244;2022-07-04T05:43:09;8.70;;;3.90;;
57327;SDS011;43162;51.040;18.244;2022-07-04T05:45:54;8.90;;;5.90;;
57327;SDS011;43162;51.040;18.244;2022-07-04T05:48:38;14.00;;;10.80;;
57327;SDS011;43162;51.040;18.244;2022-07-04T05:51:22;9.30;;;5.00;;
57327;SDS011;43162;51.040;18.244;2022-07-04T05:54:06;7.00;;;3.30;;
57327;SDS011;43162;51.040;18.244;2022-07-04T05:56:50;8.90;;;3.20;;
57327;SDS011;43162;51.040;18.244;2022-07-04T05:59:34;5.40;;;3.50;;
57327;SDS011;43162;51.040;18.244;2022-07-04T06:02:18;5.40;;;3.80;;
57327;SDS011;43162;51.040;18.244;2022-07-04T06:05:03;6.90;;;3.60;;
57327;SDS011;43162;51.040;18.244;2022-07-04T06:07:47;6.00;;;3.30;;
57327;SDS011;43162;51.040;18.244;2022-07-04T06:10:32;6.10;;;3.50;;
57327;SDS011;43162;51.040;18.244;2022-07-04T06:13:17;6.10;;;3.50;;
57327;SDS011;43162;51.040;18.244;2022-07-04T06:16:01;5.80;;;3.50;;
57327;SDS011;43162;51.040;18.244;2022-07-04T06:18:45;7.50;;;3.80;;
57327;SDS011;43162;51.040;18.244;2022-07-04T06:21:29;13.20;;;4.00;;
57327;SDS011;43162;51.040;18.244;2022-07-04T06:24:13;6.40;;;3.50;;
57327;SDS011;43162;51.040;18.244;2022-07-04T06:26:57;6.90;;;3.40;;
57327;SDS011;43162;51.040;18.244;2022-07-04T06:29:42;9.60;;;3.70;;
57327;SDS011;43162;51.040;18.244;2022-07-04T06:32:26;8.30;;;3.60;;
57327;SDS011;43162;51.040;18.244;2022-07-04T06:35:10;10.00;;;3.30;;
57327;SDS011;43162;51.040;18.244;2022-07-04T06:38:20;6.40;;;3.00;;
57327;SDS011;43162;51.040;18.244;2022-07-04T06:41:05;6.60;;;3.20;;
57327;SDS011;43162;51.040;18.244;2022-07-04T06:43:49;4.90;;;3.40;;
57327;SDS011;43162;51.040;18.244;2022-07-04T06:46:33;6.60;;;3.40;;
57327;SDS011;43162;51.040;18.244;2022-07-04T06:49:17;7.50;;;3.50;;
57327;SDS011;43162;51.040;18.244;2022-07-04T06:52:01;5.80;;;3.20;;
57327;SDS011;43162;51.040;18.244;2022-07-04T06:54:45;6.90;;;3.00;;
57327;SDS011;43162;51.040;18.244;2022-07-04T06:57:29;6.30;;;3.10;;
57327;SDS011;43162;51.040;18.244;2022-07-04T07:00:14;7.00;;;2.80;;
57327;SDS011;43162;51.040;18.244;2022-07-04T07:02:58;4.70;;;2.50;;
57327;SDS011;43162;51.040;18.244;2022-07-04T07:05:42;5.40;;;2.70;;
57327;SDS011;43162;51.040;18.244;2022-07-04T07:08:26;5.30;;;2.60;;
57327;SDS011;43162;51.040;18.244;2022-07-04T07:11:11;7.00;;;2.30;;
57327;SDS011;43162;51.040;18.244;2022-07-04T07:13:58;9.80;;;2.40;;
57327;SDS011;43162;51.040;18.244;2022-07-04T07:16:42;5.60;;;2.50;;
57327;SDS011;43162;51.040;18.244;2022-07-04T07:19:26;6.90;;;2.80;;
57327;SDS011;43162;51.040;18.244;2022-07-04T07:22:11;8.20;;;3.20;;
57327;SDS011;43162;51.040;18.244;2022-07-04T07:24:56;6.10;;;2.70;;
57327;SDS011;43162;51.040;18.244;2022-07-04T07:27:40;4.00;;;2.30;;
57327;SDS011;43162;51.040;18.244;2022-07-04T07:30:24;4.10;;;2.10;;
57327;SDS011;43162;51.040;18.244;2022-07-04T07:33:09;4.90;;;2.10;;
57327;SDS011;43162;51.040;18.244;2022-07-04T07:35:53;5.30;;;2.00;;
57327;SDS011;43162;51.040;18.244;2022-07-04T07:38:37;5.00;;;1.70;;
57327;SDS011;43162;51.040;18.244;2022-07-04T07:41:21;4.80;;;1.70;;
57327;SDS011;43162;51.040;18.244;2022-07-04T07:44:05;6.80;;;1.70;;
57327;SDS011;43162;51.040;18.244;2022-07-04T07:46:49;5.50;;;1.70;;
57327;SDS011;43162;51.040;18.244;2022-07-04T07:49:34;5.50;;;1.90;;
57327;SDS011;43162;51.040;18.244;2022-07-04T07:52:20;4.30;;;1.60;;
57327;SDS011;43162;51.040;18.244;2022-07-04T07:55:04;3.60;;;1.60;;
57327;SDS011;43162;51.040;18.244;2022-07-04T07:57:48;2.80;;;1.60;;
57327;SDS011;43162;51.040;18.244;2022-07-04T08:00:32;4.00;;;1.50;;
57327;SDS011;43162;51.040;18.244;2022-07-04T08:03:16;4.40;;;1.60;;
57327;SDS011;43162;51.040;18.244;2022-07-04T08:06:20;5.00;;;1.50;;
57327;SDS011;43162;51.040;18.244;2022-07-04T08:09:05;4.30;;;1.70;;
57327;SDS011;43162;51.040;18.244;2022-07-04T08:11:49;5.70;;;1.60;;
57327;SDS011;43162;51.040;18.244;2022-07-04T08:14:33;4.50;;;1.90;;
57327;SDS011;43162;51.040;18.244;2022-07-04T08:17:18;7.70;;;2.00;;
57327;SDS011;43162;51.040;18.244;2022-07-04T08:20:03;3.90;;;1.80;;
57327;SDS011;43162;51.040;18.244;2022-07-04T08:22:47;3.20;;;1.70;;
57327;SDS011;43162;51.040;18.244;2022-07-04T08:25:32;3.60;;;1.40;;
57327;SDS011;43162;51.040;18.244;2022-07-04T08:28:16;4.20;;;1.60;;
57327;SDS011;43162;51.040;18.244;2022-07-04T08:31:01;4.20;;;1.80;;
57327;SDS011;43162;51.040;18.244;2022-07-04T08:33:45;4.20;;;1.70;;
57327;SDS011;43162;51.040;18.244;2022-07-04T08:36:32;6.50;;;1.80;;
57327;SDS011;43162;51.040;18.244;2022-07-04T08:39:16;4.00;;;1.90;;
57327;SDS011;43162;51.040;18.244;2022-07-04T08:42:02;4.70;;;1.90;;
57327;SDS011;43162;51.040;18.244;2022-07-04T08:44:48;5.50;;;1.80;;
57327;SDS011;43162;51.040;18.244;2022-07-04T08:47:33;5.70;;;1.70;;
57327;SDS011;43162;51.040;18.244;2022-07-04T08:53:15;3.10;;;1.30;;
57327;SDS011;43162;51.040;18.244;2022-07-04T08:56:00;4.30;;;1.30;;
57327;SDS011;43162;51.040;18.244;2022-07-04T08:59:03;3.30;;;1.50;;
57327;SDS011;43162;51.040;18.244;2022-07-04T09:01:48;3.80;;;1.40;;
57327;SDS011;43162;51.040;18.244;2022-07-04T09:04:33;3.80;;;1.50;;
57327;SDS011;43162;51.040;18.244;2022-07-04T09:07:17;3.80;;;2.10;;
57327;SDS011;43162;51.040;18.244;2022-07-04T09:10:02;4.30;;;1.60;;
57327;SDS011;43162;51.040;18.244;2022-07-04T09:12:47;4.60;;;1.40;;
57327;SDS011;43162;51.040;18.244;2022-07-04T09:15:32;6.20;;;1.50;;
57327;SDS011;43162;51.040;18.244;2022-07-04T09:18:23;4.70;;;1.60;;
57327;SDS011;43162;51.040;18.244;2022-07-04T09:21:08;4.80;;;1.90;;
57327;SDS011;43162;51.040;18.244;2022-07-04T09:23:53;3.40;;;1.40;;
57327;SDS011;43162;51.040;18.244;2022-07-04T09:26:40;2.70;;;1.40;;
57327;SDS011;43162;51.040;18.244;2022-07-04T09:29:24;3.20;;;1.50;;
57327;SDS011;43162;51.040;18.244;2022-07-04T09:32:09;4.30;;;1.60;;
57327;SDS011;43162;51.040;18.244;2022-07-04T09:34:54;4.20;;;1.60;;
57327;SDS011;43162;51.040;18.244;2022-07-04T09:37:44;5.40;;;1.40;;
57327;SDS011;43162;51.040;18.244;2022-07-04T09:40:36;3.90;;;1.40;;
57327;SDS011;43162;51.040;18.244;2022-07-04T09:43:48;2.80;;;1.40;;
57327;SDS011;43162;51.040;18.244;2022-07-04T09:46:41;4.70;;;1.50;;
57327;SDS011;43162;51.040;18.244;2022-07-04T09:49:26;5.30;;;1.80;;
57327;SDS011;43162;51.040;18.244;2022-07-04T09:52:10;3.50;;;1.20;;
57327;SDS011;43162;51.040;18.244;2022-07-04T09:55:01;3.70;;;1.50;;
57327;SDS011;43162;51.040;18.244;2022-07-04T09:57:51;4.30;;;1.30;;
57327;SDS011;43162;51.040;18.244;2022-07-04T10:00:38;3.70;;;1.20;;
57327;SDS011;43162;51.040;18.244;2022-07-04T10:03:23;3.30;;;1.40;;
57327;SDS011;43162;51.040;18.244;2022-07-04T10:06:10;6.40;;;1.40;;
57327;SDS011;43162;51.040;18.244;2022-07-04T10:08:55;5.10;;;1.90;;
57327;SDS011;43162;51.040;18.244;2022-07-04T10:11:52;6.10;;;1.70;;
57327;SDS011;43162;51.040;18.244;2022-07-04T10:14:36;5.10;;;1.80;;
57327;SDS011;43162;51.040;18.244;2022-07-04T10:17:21;5.10;;;2.00;;
57327;SDS011;43162;51.040;18.244;2022-07-04T10:20:05;4.30;;;1.90;;
57327;SDS011;43162;51.040;18.244;2022-07-04T10:22:49;3.70;;;1.80;;
57327;SDS011;43162;51.040;18.244;2022-07-04T10:25:33;4.60;;;2.00;;
57327;SDS011;43162;51.040;18.244;2022-07-04T10:28:18;4.10;;;2.00;;
57327;SDS011;43162;51.040;18.244;2022-07-04T10:31:02;5.10;;;2.10;;
57327;SDS011;43162;51.040;18.244;2022-07-04T10:33:46;5.40;;;2.00;;
57327;SDS011;43162;51.040;18.244;2022-07-04T10:36:31;4.90;;;2.20;;
57327;SDS011;43162;51.040;18.244;2022-07-04T10:39:20;3.90;;;2.10;;
57327;SDS011;43162;51.040;18.244;2022-07-04T10:42:05;5.70;;;2.30;;
57327;SDS011;43162;51.040;18.244;2022-07-04T10:44:50;4.20;;;2.00;;
57327;SDS011;43162;51.040;18.244;2022-07-04T10:47:35;4.60;;;2.00;;
57327;SDS011;43162;51.040;18.244;2022-07-04T10:50:31;4.20;;;1.80;;
57327;SDS011;43162;51.040;18.244;2022-07-04T10:53:15;10.50;;;2.30;;
57327;SDS011;43162;51.040;18.244;2022-07-04T10:59:06;4.90;;;2.10;;
57327;SDS011;43162;51.040;18.244;2022-07-04T11:04:59;4.60;;;2.00;;
57327;SDS011;43162;51.040;18.244;2022-07-04T11:10:31;7.00;;;1.70;;
57327;SDS011;43162;51.040;18.244;2022-07-04T11:13:17;4.30;;;1.80;;
57327;SDS011;43162;51.040;18.244;2022-07-04T11:16:03;4.60;;;1.70;;
57327;SDS011;43162;51.040;18.244;2022-07-04T11:18:49;5.10;;;1.80;;
57327;SDS011;43162;51.040;18.244;2022-07-04T11:21:34;4.00;;;1.70;;
57327;SDS011;43162;51.040;18.244;2022-07-04T11:24:18;4.20;;;1.60;;
57327;SDS011;43162;51.040;18.244;2022-07-04T11:27:02;5.10;;;1.50;;
57327;SDS011;43162;51.040;18.244;2022-07-04T11:29:54;3.40;;;1.30;;
57327;SDS011;43162;51.040;18.244;2022-07-04T11:32:38;2.70;;;1.30;;
57327;SDS011;43162;51.040;18.244;2022-07-04T11:35:23;4.00;;;1.00;;
57327;SDS011;43162;51.040;18.244;2022-07-04T11:38:07;3.50;;;1.20;;
57327;SDS011;43162;51.040;18.244;2022-07-04T11:40:52;4.20;;;0.80;;
57327;SDS011;43162;51.040;18.244;2022-07-04T11:43:58;1.70;;;0.80;;
57327;SDS011;43162;51.040;18.244;2022-07-04T11:47:14;2.00;;;0.80;;
57327;SDS011;43162;51.040;18.244;2022-07-04T11:50:00;3.20;;;0.80;;
57327;SDS011;43162;51.040;18.244;2022-07-04T11:52:48;2.60;;;0.90;;
57327;SDS011;43162;51.040;18.244;2022-07-04T11:55:38;4.30;;;0.80;;
57327;SDS011;43162;51.040;18.244;2022-07-04T11:58:22;2.30;;;0.80;;
57327;SDS011;43162;51.040;18.244;2022-07-04T12:01:06;2.20;;;0.80;;
57327;SDS011;43162;51.040;18.244;2022-07-04T12:03:50;3.00;;;0.70;;
57327;SDS011;43162;51.040;18.244;2022-07-04T12:06:34;4.60;;;0.80;;
57327;SDS011;43162;51.040;18.244;2022-07-04T12:09:18;2.10;;;0.70;;
57327;SDS011;43162;51.040;18.244;2022-07-04T12:12:03;3.00;;;0.80;;
57327;SDS011;43162;51.040;18.244;2022-07-04T12:17:41;4.00;;;1.00;;
57327;SDS011;43162;51.040;18.244;2022-07-04T12:20:25;6.20;;;1.00;;
57327;SDS011;43162;51.040;18.244;2022-07-04T12:23:09;3.90;;;1.00;;
57327;SDS011;43162;51.040;18.244;2022-07-04T12:25:54;5.50;;;0.90;;
57327;SDS011;43162;51.040;18.244;2022-07-04T12:28:38;5.50;;;1.00;;
57327;SDS011;43162;51.040;18.244;2022-07-04T12:31:37;4.40;;;1.00;;
57327;SDS011;43162;51.040;18.244;2022-07-04T12:34:21;4.10;;;0.90;;
57327;SDS011;43162;51.040;18.244;2022-07-04T12:37:10;3.30;;;0.90;;
57327;SDS011;43162;51.040;18.244;2022-07-04T12:39:58;4.60;;;0.90;;
57327;SDS011;43162;51.040;18.244;2022-07-04T12:42:50;3.00;;;0.90;;
57327;SDS011;43162;51.040;18.244;2022-07-04T12:45:55;8.60;;;1.00;;
57327;SDS011;43162;51.040;18.244;2022-07-04T12:48:39;2.90;;;0.70;;
57327;SDS011;43162;51.040;18.244;2022-07-04T12:51:25;3.80;;;0.90;;
57327;SDS011;43162;51.040;18.244;2022-07-04T12:54:09;5.30;;;0.90;;
57327;SDS011;43162;51.040;18.244;2022-07-04T12:57:02;6.20;;;0.90;;
57327;SDS011;43162;51.040;18.244;2022-07-04T12:59:47;6.50;;;0.90;;
57327;SDS011;43162;51.040;18.244;2022-07-04T13:02:31;3.30;;;0.80;;
57327;SDS011;43162;51.040;18.244;2022-07-04T13:05:15;5.20;;;0.80;;
57327;SDS011;43162;51.040;18.244;2022-07-04T13:08:03;4.50;;;0.80;;
57327;SDS011;43162;51.040;18.244;2022-07-04T13:10:47;2.10;;;0.80;;
57327;SDS011;43162;51.040;18.244;2022-07-04T13:13:31;5.10;;;1.00;;
57327;SDS011;43162;51.040;18.244;2022-07-04T13:16:15;3.40;;;0.90;;
57327;SDS011;43162;51.040;18.244;2022-07-04T13:18:59;5.10;;;1.00;;
57327;SDS011;43162;51.040;18.244;2022-07-04T13:21:44;5.20;;;0.90;;
57327;SDS011;43162;51.040;18.244;2022-07-04T13:24:29;3.00;;;0.70;;
57327;SDS011;43162;51.040;18.244;2022-07-04T13:27:13;3.80;;;0.90;;
57327;SDS011;43162;51.040;18.244;2022-07-04T13:29:57;2.30;;;0.70;;
57327;SDS011;43162;51.040;18.244;2022-07-04T13:32:41;6.80;;;1.00;;
57327;SDS011;43162;51.040;18.244;2022-07-04T13:35:26;5.70;;;0.90;;
57327;SDS011;43162;51.040;18.244;2022-07-04T13:38:10;4.20;;;0.80;;
57327;SDS011;43162;51.040;18.244;2022-07-04T13:40:54;4.90;;;1.00;;
57327;SDS011;43162;51.040;18.244;2022-07-04T13:43:40;5.40;;;0.90;;
57327;SDS011;43162;51.040;18.244;2022-07-04T13:46:25;6.50;;;1.00;;
57327;SDS011;43162;51.040;18.244;2022-07-04T13:49:09;3.60;;;1.00;;
57327;SDS011;43162;51.040;18.244;2022-07-04T13:51:53;4.60;;;1.00;;
57327;SDS011;43162;51.040;18.244;2022-07-04T13:54:38;3.50;;;1.10;;
57327;SDS011;43162;51.040;18.244;2022-07-04T13:57:22;2.50;;;1.00;;
57327;SDS011;43162;51.040;18.244;2022-07-04T14:00:09;3.60;;;1.00;;
57327;SDS011;43162;51.040;18.244;2022-07-04T14:02:54;6.90;;;1.00;;
57327;SDS011;43162;51.040;18.244;2022-07-04T14:05:40;4.20;;;1.10;;
57327;SDS011;43162;51.040;18.244;2022-07-04T14:08:24;4.80;;;1.00;;
57327;SDS011;43162;51.040;18.244;2022-07-04T14:11:09;3.50;;;1.00;;
57327;SDS011;43162;51.040;18.244;2022-07-04T14:13:54;3.70;;;1.10;;
57327;SDS011;43162;51.040;18.244;2022-07-04T14:16:38;3.80;;;1.20;;
57327;SDS011;43162;51.040;18.244;2022-07-04T14:19:23;2.50;;;1.10;;
57327;SDS011;43162;51.040;18.244;2022-07-04T14:22:07;6.00;;;1.10;;
57327;SDS011;43162;51.040;18.244;2022-07-04T14:24:53;4.40;;;1.30;;
57327;SDS011;43162;51.040;18.244;2022-07-04T14:27:39;4.50;;;1.00;;
57327;SDS011;43162;51.040;18.244;2022-07-04T14:30:24;4.90;;;1.30;;
57327;SDS011;43162;51.040;18.244;2022-07-04T14:33:08;5.30;;;1.20;;
57327;SDS011;43162;51.040;18.244;2022-07-04T14:35:53;5.90;;;1.30;;
57327;SDS011;43162;51.040;18.244;2022-07-04T14:38:37;3.30;;;1.00;;
57327;SDS011;43162;51.040;18.244;2022-07-04T14:41:25;3.50;;;1.10;;
57327;SDS011;43162;51.040;18.244;2022-07-04T14:44:09;4.80;;;1.00;;
57327;SDS011;43162;51.040;18.244;2022-07-04T14:46:53;2.70;;;0.90;;
57327;SDS011;43162;51.040;18.244;2022-07-04T14:49:38;2.40;;;1.10;;
57327;SDS011;43162;51.040;18.244;2022-07-04T14:52:22;3.90;;;1.00;;
57327;SDS011;43162;51.040;18.244;2022-07-04T14:55:07;3.20;;;1.00;;
57327;SDS011;43162;51.040;18.244;2022-07-04T14:57:51;2.20;;;0.80;;
57327;SDS011;43162;51.040;18.244;2022-07-04T15:00:35;2.40;;;1.00;;
57327;SDS011;43162;51.040;18.244;2022-07-04T15:03:19;3.90;;;1.20;;
57327;SDS011;43162;51.040;18.244;2022-07-04T15:06:03;2.80;;;0.90;;
57327;SDS011;43162;51.040;18.244;2022-07-04T15:08:47;3.60;;;0.80;;
57327;SDS011;43162;51.040;18.244;2022-07-04T15:11:33;2.90;;;0.90;;
57327;SDS011;43162;51.040;18.244;2022-07-04T15:14:18;4.30;;;1.00;;
57327;SDS011;43162;51.040;18.244;2022-07-04T15:17:02;3.90;;;1.20;;
57327;SDS011;43162;51.040;18.244;2022-07-04T15:19:47;6.50;;;1.10;;
57327;SDS011;43162;51.040;18.244;2022-07-04T15:22:50;4.80;;;1.00;;
57327;SDS011;43162;51.040;18.244;2022-07-04T15:25:53;3.40;;;0.90;;
57327;SDS011;43162;51.040;18.244;2022-07-04T15:28:38;5.00;;;0.80;;
57327;SDS011;43162;51.040;18.244;2022-07-04T15:31:22;3.70;;;0.80;;
57327;SDS011;43162;51.040;18.244;2022-07-04T15:34:07;2.00;;;0.80;;
57327;SDS011;43162;51.040;18.244;2022-07-04T15:36:51;6.10;;;0.90;;
57327;SDS011;43162;51.040;18.244;2022-07-04T15:39:35;4.20;;;1.00;;
57327;SDS011;43162;51.040;18.244;2022-07-04T15:42:21;7.10;;;1.00;;
57327;SDS011;43162;51.040;18.244;2022-07-04T15:45:05;4.10;;;0.90;;
57327;SDS011;43162;51.040;18.244;2022-07-04T15:47:50;7.20;;;1.00;;
57327;SDS011;43162;51.040;18.244;2022-07-04T15:50:35;3.90;;;0.90;;
57327;SDS011;43162;51.040;18.244;2022-07-04T15:53:19;3.30;;;0.80;;
57327;SDS011;43162;51.040;18.244;2022-07-04T15:56:03;4.10;;;1.00;;
57327;SDS011;43162;51.040;18.244;2022-07-04T15:58:47;3.10;;;1.10;;
57327;SDS011;43162;51.040;18.244;2022-07-04T16:01:31;2.90;;;1.00;;
57327;SDS011;43162;51.040;18.244;2022-07-04T16:04:15;5.50;;;1.10;;
57327;SDS011;43162;51.040;18.244;2022-07-04T16:06:59;4.50;;;1.10;;
57327;SDS011;43162;51.040;18.244;2022-07-04T16:09:43;5.40;;;1.20;;
57327;SDS011;43162;51.040;18.244;2022-07-04T16:12:29;3.60;;;1.00;;
57327;SDS011;43162;51.040;18.244;2022-07-04T16:15:14;3.30;;;1.10;;
57327;SDS011;43162;51.040;18.244;2022-07-04T16:17:58;2.10;;;0.90;;
57327;SDS011;43162;51.040;18.244;2022-07-04T16:20:43;4.70;;;1.00;;
57327;SDS011;43162;51.040;18.244;2022-07-04T16:23:28;4.20;;;1.00;;
57327;SDS011;43162;51.040;18.244;2022-07-04T16:26:12;6.70;;;1.10;;
57327;SDS011;43162;51.040;18.244;2022-07-04T16:28:58;4.50;;;1.00;;
57327;SDS011;43162;51.040;18.244;2022-07-04T16:31:43;4.70;;;1.00;;
57327;SDS011;43162;51.040;18.244;2022-07-04T16:34:30;3.00;;;1.00;;
57327;SDS011;43162;51.040;18.244;2022-07-04T16:37:15;4.00;;;0.90;;